Time;durP1;ratioP1;P1;durP2;ratioP2;P2;SDS_P1;SDS_P2;PMS_P1;PMS_P2;Temp;Humidity;BMP_temperature;BMP_pressure;BME280_temperature;BME280_humidity;BME280_pressure;Samples;Min_cycle;Max_cycle;Signal;HPM_P1;HPM_P2
2021/01/17 00:00:25;;;;;;;16.87;9.43;;;0.00;80.90;;;;;;4891297;28;97214;-77
2021/01/17 00:02:51;;;;;;;16.53;9.90;;;0.00;81.20;;;;;;4881668;28;96747;-77
2021/01/17 00:05:29;;;;;;;16.13;9.57;;;0.00;81.00;;;;;;4893703;28;92905;-77
2021/01/17 00:07:55;;;;;;;16.60;10.10;;;0.10;81.00;;;;;;4895475;28;92010;-78
2021/01/17 00:10:23;;;;;;;15.50;9.23;;;0.20;80.60;;;;;;4896542;28;93351;-78
2021/01/17 00:12:50;;;;;;;12.63;8.63;;;0.20;80.30;;;;;;4883247;28;92175;-78
2021/01/17 00:15:17;;;;;;;12.23;7.93;;;0.10;80.00;;;;;;4897487;28;91970;-78
2021/01/17 00:17:44;;;;;;;14.37;8.93;;;0.10;80.20;;;;;;4884705;28;91422;-78
2021/01/17 00:20:16;;;;;;;14.57;8.70;;;0.10;80.40;;;;;;4880652;28;96748;-77
2021/01/17 00:22:42;;;;;;;17.30;9.50;;;0.10;80.30;;;;;;4899626;28;92313;-78
2021/01/17 00:25:11;;;;;;;16.47;9.13;;;0.20;80.00;;;;;;4866074;28;93887;-76
2021/01/17 00:27:37;;;;;;;16.17;9.37;;;0.20;80.20;;;;;;4894468;28;94028;-78
2021/01/17 00:30:05;;;;;;;14.97;8.80;;;0.10;79.70;;;;;;4886709;28;93908;-78
2021/01/17 00:32:30;;;;;;;15.17;7.40;;;0.20;79.50;;;;;;4918947;28;95823;-78
2021/01/17 00:34:56;;;;;;;12.03;7.60;;;0.20;79.30;;;;;;4887447;28;92000;-78
2021/01/17 00:37:22;;;;;;;11.07;6.10;;;0.20;79.10;;;;;;4918780;28;92067;-78
2021/01/17 00:39:48;;;;;;;15.90;7.53;;;0.20;78.60;;;;;;4902664;28;96399;-78
2021/01/17 00:42:15;;;;;;;10.90;6.30;;;0.10;79.10;;;;;;4903116;28;92923;-78
2021/01/17 00:44:42;;;;;;;11.37;5.90;;;0.10;78.80;;;;;;4919269;28;92755;-78
2021/01/17 00:47:12;;;;;;;9.83;6.13;;;0.10;78.80;;;;;;4921787;28;92459;-77
2021/01/17 00:49:39;;;;;;;8.57;5.43;;;0.10;79.00;;;;;;4919285;28;96472;-78
2021/01/17 00:52:05;;;;;;;12.27;5.93;;;0.10;78.80;;;;;;4887261;28;96976;-78
2021/01/17 00:54:31;;;;;;;10.00;5.67;;;0.10;78.80;;;;;;4873276;28;92079;-78
2021/01/17 00:57:04;;;;;;;9.73;5.67;;;0.20;78.80;;;;;;4919596;28;92094;-78
2021/01/17 00:59:30;;;;;;;9.87;5.90;;;0.20;78.80;;;;;;4913034;28;96140;-78
2021/01/17 01:01:56;;;;;;;9.60;5.87;;;0.20;78.70;;;;;;4900083;28;96741;-78
2021/01/17 01:04:22;;;;;;;10.53;5.80;;;0.20;78.50;;;;;;4899422;28;92038;-78
2021/01/17 01:06:51;;;;;;;11.03;5.83;;;0.10;78.50;;;;;;4868876;28;91342;-78
2021/01/17 01:09:17;;;;;;;11.20;5.77;;;0.10;78.60;;;;;;4867517;28;96577;-78
2021/01/17 01:11:44;;;;;;;11.00;5.67;;;0.10;78.40;;;;;;4899799;28;96020;-78
2021/01/17 01:14:10;;;;;;;8.93;5.33;;;0.10;78.40;;;;;;4881644;28;93097;-76
2021/01/17 01:16:36;;;;;;;9.10;5.20;;;0.10;78.40;;;;;;4879584;28;92566;-78
2021/01/17 01:19:03;;;;;;;7.77;5.30;;;0.10;78.50;;;;;;4886476;28;93650;-78
2021/01/17 01:21:34;;;;;;;9.60;5.43;;;0.10;78.50;;;;;;4883032;28;95810;-78
2021/01/17 01:24:00;;;;;;;9.90;5.60;;;0.20;77.80;;;;;;4884303;28;91998;-78
2021/01/17 01:26:34;;;;;;;10.30;5.67;;;0.10;77.90;;;;;;4899481;28;92084;-78
2021/01/17 01:29:00;;;;;;;11.57;5.97;;;0.10;78.10;;;;;;4899164;28;93350;-77
2021/01/17 01:31:26;;;;;;;8.37;5.33;;;0.20;78.10;;;;;;4866424;28;96393;-78
2021/01/17 01:33:52;;;;;;;9.40;5.23;;;0.10;77.80;;;;;;4899923;28;91883;-78
2021/01/17 01:36:19;;;;;;;10.97;5.73;;;0.10;78.30;;;;;;4867454;28;92091;-78
2021/01/17 01:38:45;;;;;;;9.50;6.13;;;0.10;78.30;;;;;;4867326;28;97240;-78
2021/01/17 01:41:11;;;;;;;10.73;6.10;;;0.20;78.20;;;;;;4867665;28;96485;-78
2021/01/17 01:43:37;;;;;;;11.23;5.43;;;0.20;77.90;;;;;;4899944;28;91983;-78
2021/01/17 01:46:03;;;;;;;12.50;5.77;;;0.20;77.80;;;;;;4888359;28;94149;-78
2021/01/17 01:48:33;;;;;;;13.03;6.87;;;0.20;77.70;;;;;;4901814;28;96809;-79
2021/01/17 01:51:01;;;;;;;12.03;6.67;;;0.20;77.50;;;;;;4886548;28;96073;-78
2021/01/17 01:53:27;;;;;;;10.67;5.00;;;0.30;77.50;;;;;;4908289;28;92137;-78
2021/01/17 01:55:53;;;;;;;10.00;5.87;;;0.20;77.60;;;;;;4926993;28;91357;-78
2021/01/17 01:58:23;;;;;;;9.63;5.10;;;0.30;77.60;;;;;;4891923;28;96097;-78
2021/01/17 02:00:50;;;;;;;11.40;6.07;;;0.30;77.50;;;;;;4923951;28;94846;-78
2021/01/17 02:03:17;;;;;;;11.30;6.30;;;0.30;77.20;;;;;;4924106;28;93047;-78
2021/01/17 02:05:43;;;;;;;11.47;6.23;;;0.40;77.20;;;;;;4909015;28;92245;-78
2021/01/17 02:08:28;;;;;;;10.83;5.63;;;0.30;77.30;;;;;;4924854;28;96895;-78
2021/01/17 02:11:03;;;;;;;10.40;5.77;;;0.40;77.30;;;;;;4909240;28;92922;-78
2021/01/17 02:13:37;;;;;;;11.73;6.17;;;0.40;77.10;;;;;;4892464;28;92717;-78
2021/01/17 02:16:05;;;;;;;14.67;8.67;;;0.40;77.10;;;;;;4909297;28;91998;-78
2021/01/17 02:18:34;;;;;;;21.33;12.13;;;0.20;75.50;;;;;;4923348;28;96381;-78
2021/01/17 02:21:02;;;;;;;19.10;10.87;;;0.00;74.30;;;;;;4905693;28;96511;-78
2021/01/17 02:23:40;;;;;;;19.10;10.47;;;-0.10;74.00;;;;;;4911780;28;92181;-78
2021/01/17 02:26:07;;;;;;;18.57;10.60;;;-0.20;73.50;;;;;;4898798;28;92737;-78
2021/01/17 02:28:33;;;;;;;20.00;11.13;;;-0.30;73.80;;;;;;4890641;28;97371;-78
2021/01/17 02:31:01;;;;;;;17.40;10.57;;;-0.30;73.80;;;;;;4891770;28;96956;-78
2021/01/17 02:33:34;;;;;;;18.63;10.50;;;-0.30;73.90;;;;;;4922789;28;92060;-77
2021/01/17 02:36:53;;;;;;;20.57;11.33;;;-0.40;73.10;;;;;;4925707;28;92459;-78
2021/01/17 02:39:28;;;;;;;19.70;11.53;;;-0.60;73.30;;;;;;4849647;29;97024;-77
2021/01/17 02:42:02;;;;;;;20.43;11.00;;;-0.70;74.20;;;;;;4865710;29;92959;-78
2021/01/17 02:44:32;;;;;;;21.20;11.00;;;-0.80;73.50;;;;;;4888138;28;92273;-78
2021/01/17 02:46:59;;;;;;;19.77;10.97;;;-0.80;73.40;;;;;;4926217;28;92194;-78
2021/01/17 02:49:25;;;;;;;23.70;12.40;;;-0.80;73.90;;;;;;4923410;28;97039;-78
2021/01/17 02:51:52;;;;;;;22.33;10.17;;;-0.70;72.90;;;;;;4924101;28;96074;-78
2021/01/17 02:54:29;;;;;;;18.13;9.83;;;-0.60;70.20;;;;;;4923985;28;92855;-76
2021/01/17 02:57:01;;;;;;;21.40;10.03;;;-0.70;69.40;;;;;;4895497;28;92065;-78
2021/01/17 02:59:33;;;;;;;17.15;9.48;;;-0.80;69.40;;;;;;4912990;28;93808;-78
2021/01/17 03:02:02;;;;;;;22.73;9.73;;;-0.80;69.50;;;;;;4896230;28;96364;-78
2021/01/17 03:05:01;;;;;;;17.23;9.50;;;-0.80;69.00;;;;;;4907505;28;92392;-78
2021/01/17 03:07:32;;;;;;;19.20;9.77;;;-0.90;69.50;;;;;;4887164;28;92056;-78
2021/01/17 03:10:07;;;;;;;17.63;9.30;;;-0.90;69.90;;;;;;4888555;28;96706;-78
2021/01/17 03:12:33;;;;;;;17.30;9.67;;;-0.90;69.40;;;;;;4904787;28;92806;-78
2021/01/17 03:15:02;;;;;;;18.07;9.93;;;-0.80;69.40;;;;;;4905572;28;91962;-78
2021/01/17 03:17:28;;;;;;;18.70;9.03;;;-0.80;68.40;;;;;;4888225;28;92201;-77
2021/01/17 03:19:54;;;;;;;17.93;8.67;;;-0.80;66.00;;;;;;4904544;28;94314;-78
2021/01/17 03:22:20;;;;;;;18.77;8.97;;;-1.00;65.30;;;;;;4905024;28;93782;-78
2021/01/17 03:24:45;;;;;;;17.30;8.77;;;-1.10;65.00;;;;;;4921787;28;91889;-78
2021/01/17 03:27:11;;;;;;;19.43;9.87;;;-1.20;65.20;;;;;;4905151;28;92085;-78
2021/01/17 03:29:37;;;;;;;19.37;9.90;;;-1.20;65.70;;;;;;4919718;28;96422;-78
2021/01/17 03:32:03;;;;;;;15.17;8.97;;;-1.20;64.30;;;;;;4888651;28;96144;-78
2021/01/17 03:34:29;;;;;;;19.53;9.47;;;-1.40;64.30;;;;;;4920267;28;91878;-78
2021/01/17 03:36:55;;;;;;;18.00;8.87;;;-1.50;64.30;;;;;;4921375;28;91366;-78
2021/01/17 03:39:21;;;;;;;17.90;9.33;;;-1.60;64.70;;;;;;4921820;28;92809;-77
2021/01/17 03:41:47;;;;;;;17.50;9.63;;;-1.60;64.60;;;;;;4921408;28;93096;-78
2021/01/17 03:44:13;;;;;;;20.33;9.37;;;-1.60;64.30;;;;;;4904084;28;93417;-78
2021/01/17 03:46:39;;;;;;;20.17;9.37;;;-1.60;63.80;;;;;;4887986;28;92091;-78
2021/01/17 03:49:04;;;;;;;17.03;9.60;;;-1.70;63.10;;;;;;4888352;28;96644;-78
2021/01/17 03:51:30;;;;;;;16.57;8.83;;;-1.90;63.40;;;;;;4903836;28;92796;-78
2021/01/17 03:53:56;;;;;;;15.67;9.17;;;-2.00;63.00;;;;;;4904734;28;91999;-78
2021/01/17 03:56:22;;;;;;;18.07;9.80;;;-2.20;63.90;;;;;;4904708;28;92588;-78
2021/01/17 03:58:48;;;;;;;20.53;9.27;;;-2.30;63.50;;;;;;4903967;28;94344;-78
2021/01/17 04:01:14;;;;;;;16.20;9.33;;;-2.40;63.10;;;;;;4889404;28;93166;-78
2021/01/17 04:03:40;;;;;;;16.03;9.03;;;-2.70;63.80;;;;;;4884644;28;92355;-77
2021/01/17 04:06:06;;;;;;;17.27;9.80;;;-2.80;64.60;;;;;;4901535;28;92236;-78
2021/01/17 04:08:32;;;;;;;18.47;10.30;;;-3.00;64.90;;;;;;4899859;28;94308;-77
2021/01/17 04:10:58;;;;;;;18.40;10.00;;;-3.00;65.30;;;;;;4874060;28;97132;-78
2021/01/17 04:13:24;;;;;;;17.23;9.40;;;-2.90;65.50;;;;;;4920257;28;94635;-77
2021/01/17 04:15:50;;;;;;;17.70;9.40;;;-3.10;63.80;;;;;;4901365;28;91989;-77
2021/01/17 04:18:16;;;;;;;17.90;9.30;;;-3.20;65.60;;;;;;4913147;28;93231;-77
2021/01/17 04:20:42;;;;;;;16.77;9.63;;;-3.20;65.00;;;;;;4887191;28;96248;-77
2021/01/17 04:23:09;;;;;;;17.33;9.67;;;-3.20;64.80;;;;;;4904326;28;91962;-77
2021/01/17 04:25:35;;;;;;;16.93;9.10;;;-3.20;64.60;;;;;;4903575;28;91343;-77
2021/01/17 04:28:01;;;;;;;16.40;8.80;;;-3.40;63.40;;;;;;4888114;28;96476;-77
2021/01/17 04:30:34;;;;;;;17.70;9.40;;;-3.50;63.50;;;;;;4903942;28;92983;-76
2021/01/17 04:33:00;;;;;;;19.17;10.00;;;-3.40;62.60;;;;;;4904759;28;93463;-78
2021/01/17 04:35:26;;;;;;;17.27;9.37;;;-3.40;62.60;;;;;;4903636;28;92261;-76
2021/01/17 04:37:58;;;;;;;16.83;9.33;;;-3.40;61.50;;;;;;4887229;28;97086;-77
2021/01/17 04:40:26;;;;;;;17.23;10.05;;;-3.40;62.20;;;;;;4886821;28;96328;-77
2021/01/17 04:43:02;;;;;;;18.83;10.37;;;-3.50;62.70;;;;;;4904912;28;92211;-77
2021/01/17 04:45:30;;;;;;;18.20;9.90;;;-3.30;62.90;;;;;;4902595;28;92459;-76
2021/01/17 04:47:58;;;;;;;17.73;9.30;;;-3.20;60.00;;;;;;4920915;28;92732;-77
2021/01/17 04:50:29;;;;;;;17.60;10.47;;;-3.30;61.20;;;;;;4918285;28;95911;-77
2021/01/17 04:53:07;;;;;;;21.37;10.27;;;-3.30;61.00;;;;;;4920714;28;91984;-77
2021/01/17 04:55:37;;;;;;;17.13;9.47;;;-3.30;60.90;;;;;;4886592;28;92054;-77
2021/01/17 04:58:16;;;;;;;21.63;9.87;;;-3.40;59.80;;;;;;4920464;28;94142;-77
2021/01/17 05:00:52;;;;;;;18.10;9.80;;;-3.70;60.30;;;;;;4919021;28;97691;-77
2021/01/17 05:03:37;;;;;;;19.73;9.60;;;-3.80;60.70;;;;;;4904766;28;92160;-78
2021/01/17 05:06:09;;;;;;;20.93;11.10;;;-3.90;61.70;;;;;;4921889;28;92203;-77
2021/01/17 05:08:34;;;;;;;20.33;10.48;;;-4.20;61.60;;;;;;4918409;28;94568;-77
2021/01/17 05:11:30;;;;;;;21.73;10.53;;;-4.50;62.90;;;;;;4903394;28;95693;-77
2021/01/17 05:14:20;;;;;;;18.30;10.30;;;-4.50;63.80;;;;;;4919320;28;91905;-77
2021/01/17 05:16:47;;;;;;;22.47;11.23;;;-4.40;63.90;;;;;;4920556;28;91303;-77
2021/01/17 05:19:17;;;;;;;18.33;10.20;;;-4.20;63.90;;;;;;4902575;28;96724;-77
2021/01/17 05:21:50;;;;;;;18.80;9.50;;;-4.20;62.40;;;;;;4920275;28;92944;-77
2021/01/17 05:24:18;;;;;;;20.60;11.40;;;-4.20;62.80;;;;;;4923962;28;92959;-78
2021/01/17 05:26:55;;;;;;;23.93;11.90;;;-4.20;63.10;;;;;;4901281;28;92512;-77
2021/01/17 05:29:23;;;;;;;22.27;11.37;;;-4.40;63.80;;;;;;4918659;28;96578;-77
2021/01/17 05:31:53;;;;;;;21.87;11.37;;;-4.80;64.90;;;;;;4919125;28;92567;-77
2021/01/17 05:34:19;;;;;;;23.50;11.93;;;-5.00;65.80;;;;;;4920363;28;91798;-77
2021/01/17 05:36:46;;;;;;;24.40;12.27;;;-5.20;67.00;;;;;;4918075;28;92154;-77
2021/01/17 05:39:12;;;;;;;21.67;12.00;;;-5.40;67.40;;;;;;4902603;28;95649;-77
2021/01/17 05:41:37;;;;;;;28.90;13.77;;;-5.50;68.10;;;;;;4917407;28;96771;-77
2021/01/17 05:44:03;;;;;;;26.20;13.57;;;-5.50;68.20;;;;;;4901641;28;92262;-77
2021/01/17 05:46:29;;;;;;;26.73;13.40;;;-5.60;68.60;;;;;;4918891;28;92115;-77
2021/01/17 05:49:13;;;;;;;24.00;12.53;;;-5.70;69.10;;;;;;4918732;28;94223;-77
2021/01/17 05:51:39;;;;;;;25.57;14.03;;;-5.70;68.80;;;;;;4917396;28;97282;-77
2021/01/17 05:54:07;;;;;;;25.93;11.80;;;-5.60;69.70;;;;;;4920254;28;91890;-77
2021/01/17 05:56:35;;;;;;;25.83;12.17;;;-5.40;68.50;;;;;;4902424;28;92172;-75
2021/01/17 05:59:05;;;;;;;23.83;13.63;;;-5.20;67.40;;;;;;4902652;28;92773;-77
2021/01/17 06:01:34;;;;;;;28.80;14.97;;;-5.00;66.40;;;;;;4886418;28;95487;-77
2021/01/17 06:04:10;;;;;;;23.93;12.60;;;-5.00;65.80;;;;;;4902420;28;91932;-78
2021/01/17 06:06:37;;;;;;;24.23;13.00;;;-5.00;65.20;;;;;;4902956;28;91637;-76
2021/01/17 06:09:04;;;;;;;23.53;12.70;;;-5.10;64.80;;;;;;4902302;28;92797;-77
2021/01/17 06:11:30;;;;;;;22.73;12.60;;;-5.10;65.30;;;;;;4902465;28;93102;-77
2021/01/17 06:13:59;;;;;;;27.30;13.20;;;-5.20;65.60;;;;;;4901091;28;92956;-77
2021/01/17 06:16:41;;;;;;;26.27;13.67;;;-5.30;66.50;;;;;;4902638;28;92116;-77
2021/01/17 06:19:09;;;;;;;27.52;12.70;;;-5.10;66.30;;;;;;4902697;28;93319;-77
2021/01/17 06:21:37;;;;;;;29.50;13.87;;;-5.10;65.60;;;;;;4902220;28;93068;-75
2021/01/17 06:24:09;;;;;;;26.23;13.33;;;-5.20;65.10;;;;;;4890180;28;92041;-77
2021/01/17 06:26:40;;;;;;;35.47;16.07;;;-5.20;65.40;;;;;;4908204;28;92365;-76
2021/01/17 06:29:08;;;;;;;26.17;12.37;;;-5.20;65.10;;;;;;4887824;28;95779;-77
2021/01/17 06:31:34;;;;;;;25.43;12.77;;;-5.30;64.00;;;;;;4900171;28;93044;-77
2021/01/17 06:34:12;;;;;;;26.10;12.80;;;-5.40;64.30;;;;;;4899581;28;91831;-77
2021/01/17 06:36:43;;;;;;;29.77;14.50;;;-5.60;64.10;;;;;;4882517;28;92434;-76
2021/01/17 06:39:22;;;;;;;29.10;12.77;;;-5.70;64.30;;;;;;4884438;28;97788;-77
2021/01/17 06:41:53;;;;;;;28.13;12.50;;;-5.80;63.90;;;;;;4885119;28;94069;-76
2021/01/17 06:44:30;;;;;;;20.83;10.40;;;-5.70;64.00;;;;;;4870101;28;92207;-77
2021/01/17 06:46:56;;;;;;;20.50;9.70;;;-5.70;61.80;;;;;;4869525;28;92729;-77
2021/01/17 06:49:23;;;;;;;25.07;10.30;;;-5.80;60.60;;;;;;4886620;28;92091;-77
2021/01/17 06:51:50;;;;;;;17.13;8.83;;;-5.80;61.60;;;;;;4884895;28;96699;-76
2021/01/17 06:54:18;;;;;;;19.57;9.70;;;-5.90;60.30;;;;;;4904106;28;92004;-77
2021/01/17 06:56:46;;;;;;;19.67;9.13;;;-5.90;60.40;;;;;;4870476;28;91399;-76
2021/01/17 06:59:12;;;;;;;19.80;9.80;;;-5.90;60.10;;;;;;4903511;28;92911;-77
2021/01/17 07:01:43;;;;;;;17.53;8.63;;;-5.90;59.50;;;;;;4886034;28;94561;-76
2021/01/17 07:04:13;;;;;;;23.83;9.73;;;-5.90;59.40;;;;;;4903459;28;93102;-77
2021/01/17 07:06:39;;;;;;;21.27;9.73;;;-5.90;59.50;;;;;;4886132;28;92256;-75
2021/01/17 07:09:12;;;;;;;19.13;10.10;;;-5.90;59.70;;;;;;4903272;28;93400;-76
2021/01/17 07:12:13;;;;;;;19.80;9.93;;;-6.00;58.50;;;;;;4885319;28;93014;-75
2021/01/17 07:14:41;;;;;;;24.83;11.07;;;-6.00;59.30;;;;;;4895530;28;92114;-75
2021/01/17 07:17:09;;;;;;;24.10;10.13;;;-6.00;59.20;;;;;;4902540;28;92090;-77
2021/01/17 07:19:46;;;;;;;20.77;10.93;;;-5.90;59.50;;;;;;4868895;28;96512;-77
2021/01/17 07:22:15;;;;;;;24.50;11.40;;;-5.80;59.30;;;;;;4876129;28;96542;-77
2021/01/17 07:24:46;;;;;;;25.97;11.43;;;-5.90;58.90;;;;;;4903928;28;91976;-75
2021/01/17 07:27:38;;;;;;;21.43;10.60;;;-6.00;59.30;;;;;;4904476;28;92000;-77
2021/01/17 07:30:05;;;;;;;27.05;12.43;;;-6.20;59.70;;;;;;4920922;28;98177;-77
2021/01/17 07:32:37;;;;;;;22.07;11.37;;;-6.20;58.90;;;;;;4902917;28;97260;-77
2021/01/17 07:35:09;;;;;;;22.53;11.03;;;-6.40;59.80;;;;;;4905628;28;92040;-77
2021/01/17 07:37:41;;;;;;;27.05;11.63;;;-6.20;60.00;;;;;;4905035;28;92117;-77
2021/01/17 07:40:08;;;;;;;24.40;11.13;;;-6.00;59.50;;;;;;4906884;28;96782;-77
2021/01/17 07:42:36;;;;;;;22.63;11.97;;;-5.70;58.70;;;;;;4883968;28;93427;-77
2021/01/17 07:45:18;;;;;;;20.90;11.07;;;-5.50;57.90;;;;;;4882005;28;92030;-77
2021/01/17 07:47:46;;;;;;;27.77;12.20;;;-5.30;57.10;;;;;;4864838;28;91846;-75
2021/01/17 07:50:13;;;;;;;25.90;12.13;;;-5.00;56.70;;;;;;4881965;28;93325;-77
2021/01/17 07:52:44;;;;;;;22.47;10.83;;;-4.80;55.90;;;;;;4882922;28;92457;-77
2021/01/17 07:55:13;;;;;;;22.40;11.20;;;-4.50;55.00;;;;;;4865676;28;92834;-77
2021/01/17 07:57:45;;;;;;;23.50;11.10;;;-4.20;54.60;;;;;;4866067;28;92235;-77
2021/01/17 08:00:12;;;;;;;22.10;11.10;;;-4.00;53.00;;;;;;4865432;28;96497;-77
2021/01/17 08:02:38;;;;;;;21.03;10.13;;;-3.80;53.20;;;;;;4849810;28;95498;-77
2021/01/17 08:05:05;;;;;;;25.87;12.43;;;-3.50;52.30;;;;;;4880623;28;92053;-77
2021/01/17 08:07:33;;;;;;;20.63;11.80;;;-3.20;51.50;;;;;;4865868;28;92169;-77
2021/01/17 08:10:03;;;;;;;24.97;11.90;;;-2.90;51.30;;;;;;4864025;28;93427;-76
2021/01/17 08:12:34;;;;;;;22.97;12.03;;;-2.70;50.10;;;;;;4849868;28;96296;-77
2021/01/17 08:15:27;;;;;;;22.53;11.10;;;-2.40;49.50;;;;;;4865207;28;92355;-77
2021/01/17 08:17:53;;;;;;;26.87;12.73;;;-2.20;48.50;;;;;;4882930;28;91810;-77
2021/01/17 08:20:21;;;;;;;22.23;12.00;;;-2.10;47.90;;;;;;4863937;28;96736;-77
2021/01/17 08:22:47;;;;;;;21.67;12.33;;;-2.00;47.70;;;;;;4880221;28;97215;-76
2021/01/17 08:25:15;;;;;;;25.40;13.20;;;-1.90;47.70;;;;;;4865441;28;92095;-77
2021/01/17 08:27:45;;;;;;;21.83;11.67;;;-1.60;47.20;;;;;;4849709;28;92026;-77
2021/01/17 08:30:17;;;;;;;26.97;12.07;;;-1.60;46.20;;;;;;4869995;28;94184;-77
2021/01/17 08:32:44;;;;;;;20.65;11.20;;;-1.50;46.70;;;;;;4882607;28;95880;-77
2021/01/17 08:35:19;;;;;;;20.53;11.87;;;-1.30;46.50;;;;;;4884177;28;91823;-77
2021/01/17 08:38:08;;;;;;;25.93;11.83;;;-1.20;45.70;;;;;;4884094;28;91358;-76
2021/01/17 08:40:34;;;;;;;26.00;13.80;;;-1.00;45.60;;;;;;4884007;28;96779;-77
2021/01/17 08:43:01;;;;;;;27.90;13.93;;;-0.70;45.60;;;;;;4880065;28;95956;-77
2021/01/17 08:45:27;;;;;;;31.33;14.77;;;-0.60;45.80;;;;;;4882404;28;92937;-77
2021/01/17 08:48:02;;;;;;;30.33;15.17;;;-0.50;45.50;;;;;;4864741;28;92153;-79
2021/01/17 08:50:34;;;;;;;31.87;16.27;;;-0.40;45.40;;;;;;4881971;28;93800;-77
2021/01/17 08:53:21;;;;;;;30.03;15.43;;;-0.20;45.00;;;;;;4848331;28;96124;-77
2021/01/17 08:55:57;;;;;;;28.70;14.33;;;-0.20;44.50;;;;;;4861685;28;92031;-76
2021/01/17 08:58:26;;;;;;;34.17;16.80;;;-0.10;44.20;;;;;;4869474;28;92306;-77
2021/01/17 09:00:52;;;;;;;29.97;15.53;;;0.00;44.40;;;;;;4863010;28;93180;-77
2021/01/17 09:03:29;;;;;;;27.80;14.87;;;0.10;44.00;;;;;;4863491;28;96410;-77
2021/01/17 09:06:05;;;;;;;30.50;14.97;;;0.10;43.60;;;;;;4874776;28;91905;-78
2021/01/17 09:08:33;;;;;;;27.17;14.83;;;0.20;43.50;;;;;;4879524;28;92277;-77
2021/01/17 09:10:59;;;;;;;30.83;16.53;;;0.20;43.30;;;;;;4864348;28;97566;-77
2021/01/17 09:13:32;;;;;;;30.50;16.40;;;0.30;42.80;;;;;;4880254;28;93380;-77
2021/01/17 09:16:03;;;;;;;35.00;16.70;;;0.30;42.80;;;;;;4880046;28;92181;-79
2021/01/17 09:18:33;;;;;;;29.07;14.67;;;0.30;42.70;;;;;;4884189;28;92117;-77
2021/01/17 09:20:59;;;;;;;26.90;13.83;;;0.40;43.50;;;;;;4863723;28;96469;-76
2021/01/17 09:23:25;;;;;;;31.47;15.67;;;0.50;43.00;;;;;;4848568;28;95560;-76
2021/01/17 09:25:59;;;;;;;25.80;14.30;;;0.60;42.70;;;;;;4879691;28;91906;-76
2021/01/17 09:28:26;;;;;;;26.47;13.90;;;0.70;43.10;;;;;;4864969;28;91364;-77
2021/01/17 09:30:54;;;;;;;24.63;13.27;;;0.80;42.70;;;;;;4863805;28;96084;-75
2021/01/17 09:33:20;;;;;;;32.27;13.97;;;0.90;42.20;;;;;;4880327;28;93369;-76
2021/01/17 09:35:48;;;;;;;24.93;13.70;;;1.00;41.90;;;;;;4864417;28;93392;-76
2021/01/17 09:38:20;;;;;;;23.40;12.90;;;1.10;41.20;;;;;;4864468;28;92170;-77
2021/01/17 09:40:49;;;;;;;24.53;12.93;;;1.10;41.40;;;;;;4880494;28;96920;-75
2021/01/17 09:43:18;;;;;;;25.07;13.77;;;1.10;41.00;;;;;;4887688;28;93442;-75
2021/01/17 09:45:58;;;;;;;24.40;12.27;;;1.20;41.00;;;;;;4884478;28;92100;-75
2021/01/17 09:48:25;;;;;;;23.03;13.10;;;1.20;41.10;;;;;;4883930;28;92111;-75
2021/01/17 09:50:51;;;;;;;26.23;13.57;;;1.30;41.30;;;;;;4873615;28;96369;-76
2021/01/17 09:53:18;;;;;;;22.27;12.60;;;1.30;41.10;;;;;;4878568;28;96614;-75
2021/01/17 09:55:46;;;;;;;21.33;12.43;;;1.40;40.60;;;;;;4879328;28;92236;-75
2021/01/17 09:58:14;;;;;;;23.57;12.10;;;1.40;41.20;;;;;;4890112;28;92595;-75
2021/01/17 10:00:41;;;;;;;26.07;13.20;;;1.40;40.60;;;;;;4861541;28;96548;-74
2021/01/17 10:03:09;;;;;;;26.17;12.87;;;1.40;40.20;;;;;;4871112;28;97529;-75
2021/01/17 10:05:36;;;;;;;26.13;14.30;;;1.50;40.20;;;;;;4892839;28;92159;-75
2021/01/17 10:08:08;;;;;;;25.13;14.10;;;1.30;40.30;;;;;;4889608;28;92185;-75
2021/01/17 10:10:39;;;;;;;28.10;15.20;;;1.30;40.10;;;;;;4889102;28;96946;-75
2021/01/17 10:13:07;;;;;;;29.20;17.57;;;1.30;41.90;;;;;;4873069;28;96586;-74
2021/01/17 10:15:33;;;;;;;29.23;14.93;;;1.10;39.80;;;;;;4895643;28;91897;-75
2021/01/17 10:17:59;;;;;;;30.77;15.77;;;0.60;40.90;;;;;;4894388;28;91947;-75
2021/01/17 10:20:25;;;;;;;31.17;15.47;;;0.50;42.00;;;;;;4898285;28;92807;-79
2021/01/17 10:23:03;;;;;;;33.13;16.37;;;0.40;41.30;;;;;;4892310;28;92943;-78
2021/01/17 10:25:30;;;;;;;29.47;15.13;;;0.00;41.90;;;;;;4890128;28;93638;-79
2021/01/17 10:28:00;;;;;;;25.37;14.03;;;0.00;43.30;;;;;;4876990;28;92548;-79
2021/01/17 10:30:27;;;;;;;27.90;13.57;;;0.10;43.20;;;;;;4890929;28;92915;-79
2021/01/17 10:33:07;;;;;;;26.87;14.83;;;0.30;43.10;;;;;;4871828;28;96069;-77
2021/01/17 10:35:44;;;;;;;26.93;14.17;;;0.50;42.80;;;;;;4882652;28;92048;-79
2021/01/17 10:38:12;;;;;;;28.00;14.27;;;0.60;41.80;;;;;;4880319;28;92716;-78
2021/01/17 10:40:39;;;;;;;27.07;14.77;;;0.60;42.10;;;;;;4878759;28;96611;-79
2021/01/17 10:43:07;;;;;;;30.80;16.23;;;0.60;42.20;;;;;;4900156;28;92899;-79
2021/01/17 10:45:34;;;;;;;28.93;14.90;;;0.70;41.00;;;;;;4883175;28;92864;-78
2021/01/17 10:48:08;;;;;;;28.70;14.57;;;0.60;40.90;;;;;;4867418;28;92294;-77
2021/01/17 10:50:48;;;;;;;30.30;15.97;;;0.60;41.70;;;;;;4898547;28;97589;-78
2021/01/17 10:53:33;;;;;;;31.33;15.43;;;0.70;42.10;;;;;;4898277;28;96775;-78
2021/01/17 10:56:00;;;;;;;26.57;13.83;;;0.50;41.80;;;;;;4867380;28;92289;-78
2021/01/17 10:58:32;;;;;;;23.97;14.00;;;0.30;42.10;;;;;;4893610;28;92208;-78
2021/01/17 11:00:59;;;;;;;24.50;13.15;;;0.10;42.00;;;;;;4882806;28;96745;-77
2021/01/17 11:03:34;;;;;;;29.23;14.87;;;0.00;42.80;;;;;;4882978;28;94812;-78
2021/01/17 11:06:22;;;;;;;35.80;17.10;;;0.20;43.60;;;;;;4900416;28;91992;-77
2021/01/17 11:08:56;;;;;;;29.03;15.43;;;0.20;43.10;;;;;;4884102;28;91449;-78
2021/01/17 11:11:30;;;;;;;29.73;14.33;;;-0.20;43.10;;;;;;4882551;28;96684;-78
2021/01/17 11:13:57;;;;;;;27.17;14.67;;;-0.40;43.60;;;;;;4898215;28;94991;-77
2021/01/17 11:16:39;;;;;;;27.57;15.50;;;-0.40;43.80;;;;;;4899767;28;93352;-78
2021/01/17 11:19:07;;;;;;;26.17;12.73;;;-0.40;44.00;;;;;;4882226;28;92118;-78
2021/01/17 11:21:34;;;;;;;26.90;14.20;;;-0.40;44.80;;;;;;4882651;28;96127;-77
2021/01/17 11:24:01;;;;;;;24.43;12.53;;;-0.40;44.70;;;;;;4881806;28;96286;-77
2021/01/17 11:26:28;;;;;;;23.00;12.03;;;-0.30;45.10;;;;;;4899657;28;92043;-78
2021/01/17 11:28:55;;;;;;;29.00;12.77;;;-0.20;43.60;;;;;;4866858;28;92235;-77
2021/01/17 11:31:23;;;;;;;18.13;11.00;;;-0.40;46.40;;;;;;4882612;28;96285;-78
2021/01/17 11:33:49;;;;;;;25.60;13.20;;;-0.30;47.30;;;;;;4880774;28;96176;-78
2021/01/17 11:36:17;;;;;;;35.33;17.20;;;-0.20;46.30;;;;;;4881780;28;92266;-78
2021/01/17 11:38:53;;;;;;;27.53;15.17;;;-0.20;44.90;;;;;;4899816;28;92071;-78
2021/01/17 11:41:39;;;;;;;34.60;16.60;;;-0.40;46.00;;;;;;4881795;28;96213;-79
2021/01/17 11:44:20;;;;;;;34.20;17.13;;;-0.50;45.10;;;;;;4899010;28;94183;-78
2021/01/17 11:46:47;;;;;;;29.73;16.63;;;-0.50;45.70;;;;;;4882475;28;92153;-79
2021/01/17 11:49:13;;;;;;;35.27;18.90;;;-0.70;46.40;;;;;;4882244;28;92624;-78
2021/01/17 11:51:39;;;;;;;35.50;18.47;;;-0.60;46.70;;;;;;4899810;28;92975;-77
2021/01/17 11:54:12;;;;;;;39.60;20.83;;;-0.60;46.70;;;;;;4899354;28;93018;-78
2021/01/17 11:56:39;;;;;;;43.10;20.97;;;-0.80;45.70;;;;;;4882863;28;92157;-77
2021/01/17 11:59:05;;;;;;;47.63;22.47;;;-1.20;46.50;;;;;;4881912;28;92032;-78
2021/01/17 12:01:31;;;;;;;44.53;20.50;;;-1.30;47.60;;;;;;4882051;28;96888;-77
2021/01/17 12:04:02;;;;;;;38.93;20.23;;;-1.20;47.30;;;;;;4881719;28;96540;-77
2021/01/17 12:06:29;;;;;;;50.37;23.17;;;-1.30;48.20;;;;;;4900165;28;93025;-77
2021/01/17 12:09:08;;;;;;;42.73;21.67;;;-1.30;47.60;;;;;;4900067;28;92146;-78
2021/01/17 12:11:46;;;;;;;39.87;20.10;;;-1.40;47.90;;;;;;4898578;28;93781;-77
2021/01/17 12:14:19;;;;;;;37.80;19.43;;;-1.40;48.50;;;;;;4876090;28;96443;-77
2021/01/17 12:16:50;;;;;;;43.20;19.23;;;-1.40;48.10;;;;;;4898526;28;92732;-77
2021/01/17 12:19:17;;;;;;;43.15;18.25;;;-1.40;48.20;;;;;;4865918;28;92146;-78
2021/01/17 12:21:44;;;;;;;39.67;17.97;;;-1.40;48.40;;;;;;4882811;28;95651;-77
2021/01/17 12:24:12;;;;;;;37.00;18.90;;;-1.40;48.10;;;;;;4892551;28;92504;-78
2021/01/17 12:26:39;;;;;;;36.57;19.17;;;-1.40;47.70;;;;;;4877240;28;92312;-78
2021/01/17 12:29:08;;;;;;;39.60;20.43;;;-1.50;47.90;;;;;;4880386;28;92173;-78
2021/01/17 12:31:34;;;;;;;42.47;21.23;;;-1.40;48.90;;;;;;4884284;28;95376;-79
2021/01/17 12:34:01;;;;;;;41.43;21.57;;;-1.50;47.70;;;;;;4879288;28;97200;-79
2021/01/17 12:36:29;;;;;;;51.17;26.63;;;-1.60;48.20;;;;;;4899856;28;91997;-79
2021/01/17 12:38:56;;;;;;;43.30;22.63;;;-1.60;47.90;;;;;;4900466;28;91917;-79
2021/01/17 12:41:33;;;;;;;44.77;22.90;;;-1.70;47.80;;;;;;4883747;28;92669;-79
2021/01/17 12:43:59;;;;;;;45.87;22.27;;;-1.70;48.30;;;;;;4880312;28;96346;-79
2021/01/17 12:46:26;;;;;;;43.00;22.70;;;-1.70;48.90;;;;;;4860188;28;92038;-80
2021/01/17 12:48:53;;;;;;;50.00;23.83;;;-1.70;48.40;;;;;;4878992;28;91546;-79